Time;durP1;ratioP1;P1;durP2;ratioP2;P2;SDS_P1;SDS_P2;PMS_P1;PMS_P2;Temp;Humidity;BMP_temperature;BMP_pressure;BME280_temperature;BME280_humidity;BME280_pressure;Samples;Min_cycle;Max_cycle;Signal;HPM_P1;HPM_P2
2023/10/18 05:18:58;;;;;;;;;;;;;;;5.49;100.00;98894.53;5029424;28;19928;-81
2023/10/18 05:21:26;;;;;;;;;;;;;;;5.43;100.00;98892.97;5017812;28;19924;-81
2023/10/18 05:23:52;;;;;;;;;;;;;;;5.49;100.00;98888.41;5017513;28;19921;-81
2023/10/18 05:26:17;;;;;;;;;;;;;;;5.40;100.00;98882.56;5035475;28;20042;-81
2023/10/18 05:28:47;;;;;;;;;;;;;;;5.36;100.00;98870.47;5033984;28;19928;-81
2023/10/18 05:34:12;;;;;;;;;;;;;;;5.27;100.00;98871.66;5035478;28;19928;-82
2023/10/18 05:41:51;;;;;;;;;;;;;;;5.17;100.00;98865.03;5035059;28;19947;-81
2023/10/18 05:44:16;;;;;;;;;;;;;;;5.02;100.00;98861.16;5024212;28;19955;-81
2023/10/18 05:46:41;;;;;;;;;;;;;;;5.05;100.00;98850.53;5024963;28;19918;-81
2023/10/18 05:49:13;;;;;;;;;;;;;;;5.08;100.00;98844.34;5024943;28;20045;-83
2023/10/18 05:51:39;;;;;;;;;;;;;;;5.96;100.00;98847.22;5008719;28;19921;-80
2023/10/18 05:54:05;;;;;;;;;;;;;;;6.46;100.00;98838.25;5008668;28;19921;-81
2023/10/18 05:56:34;;;;;;;;;;;;;;;6.79;100.00;98839.53;5009034;28;19917;-82
2023/10/18 06:01:47;;;;;;;;;;;;;;;7.21;100.00;98844.72;5035073;28;19928;-83
2023/10/18 06:04:14;;;;;;;;;;;;;;;7.36;100.00;98844.97;5034685;28;20004;-82
2023/10/18 06:06:39;;;;;;;;;;;;;;;7.52;100.00;98850.41;5016844;28;19921;-83
2023/10/18 06:09:11;;;;;;;;;;;;;;;7.66;100.00;98852.38;5016026;28;19924;-81
2023/10/18 06:11:37;;;;;;;;;;;;;;;7.73;100.00;98857.31;5033844;28;19917;-84
2023/10/18 06:14:05;;;;;;;;;;;;;;;7.80;100.00;98861.41;5013631;28;20380;-83
2023/10/18 06:16:34;;;;;;;;;;;;;;;7.89;100.00;98844.28;5024699;28;20379;-83
2023/10/18 06:19:01;;;;;;;;;;;;;;;7.95;100.00;98838.72;5033915;28;20015;-83
2023/10/18 06:21:26;;;;;;;;;;;;;;;8.02;100.00;98836.63;5033637;28;20429;-83
2023/10/18 06:23:54;;;;;;;;;;;;;;;8.06;100.00;98840.84;5000077;28;20016;-82
2023/10/18 06:26:28;;;;;;;;;;;;;;;8.12;100.00;98835.28;5024631;28;20312;-82
2023/10/18 06:28:56;;;;;;;;;;;;;;;8.16;100.00;98826.28;5014942;28;20507;-82
2023/10/18 06:31:24;;;;;;;;;;;;;;;8.22;100.00;98824.25;5024177;28;19921;-82
2023/10/18 06:33:56;;;;;;;;;;;;;;;8.29;100.00;98809.84;5023940;28;19928;-81
2023/10/18 06:36:21;;;;;;;;;;;;;;;8.32;100.00;98810.53;5024673;28;20358;-82
2023/10/18 06:38:47;;;;;;;;;;;;;;;8.36;100.00;98806.00;5023738;28;20036;-82
2023/10/18 06:41:19;;;;;;;;;;;;;;;8.39;100.00;98811.09;5024026;28;19921;-82
2023/10/18 06:43:47;;;;;;;;;;;;;;;8.40;100.00;98817.25;5004930;28;20382;-82
2023/10/18 06:46:22;;;;;;;;;;;;;;;8.45;100.00;98809.97;5023719;28;20060;-84
2023/10/18 06:48:48;;;;;;;;;;;;;;;8.48;100.00;98807.19;5032989;28;19971;-88
2023/10/18 06:51:17;;;;;;;;;;;;;;;8.50;100.00;98807.97;5024027;28;20016;-81
2023/10/18 06:53:47;;;;;;;;;;;;;;;8.53;100.00;98808.66;5033648;28;19924;-84
2023/10/18 06:56:22;;;;;;;;;;;;;;;8.54;100.00;98802.47;5015656;28;19920;-84
2023/10/18 06:58:47;;;;;;;;;;;;;;;8.62;100.00;98795.94;5032160;28;19917;-84
2023/10/18 07:01:30;;;;;;;;;;;;;;;8.63;100.00;98795.88;5033669;28;20356;-84
2023/10/18 07:03:55;;;;;;;;;;;;;;;8.66;100.00;98798.34;5033451;28;20261;-83
2023/10/18 07:06:24;;;;;;;;;;;;;;;8.68;100.00;98798.25;5006979;28;19917;-83
2023/10/18 07:08:50;;;;;;;;;;;;;;;8.68;100.00;98791.22;5006622;28;19917;-82
2023/10/18 07:11:19;;;;;;;;;;;;;;;8.69;100.00;98792.91;5033670;28;20249;-83
2023/10/18 07:13:47;;;;;;;;;;;;;;;8.75;100.00;98796.19;5032327;28;20019;-83
2023/10/18 07:19:07;;;;;;;;;;;;;;;8.79;100.00;98793.31;5033026;28;19928;-81
2023/10/18 07:21:32;;;;;;;;;;;;;;;8.81;100.00;98796.72;5006971;28;19964;-82
2023/10/18 07:24:02;;;;;;;;;;;;;;;8.83;100.00;98788.72;5033170;28;19921;-81
2023/10/18 07:26:29;;;;;;;;;;;;;;;8.83;100.00;98779.00;5008290;28;19924;-80
2023/10/18 07:28:54;;;;;;;;;;;;;;;8.86;100.00;98775.34;5005710;28;19990;-81
2023/10/18 07:31:19;;;;;;;;;;;;;;;8.89;100.00;98785.75;5033035;28;20007;-83
2023/10/18 07:33:44;;;;;;;;;;;;;;;8.89;100.00;98778.69;5023024;28;19924;-82
2023/10/18 07:36:11;;;;;;;;;;;;;;;8.93;100.00;98773.22;5005095;28;19923;-82
2023/10/18 07:38:55;;;;;;;;;;;;;;;8.00;100.00;98785.75;5022632;28;19928;-80
2023/10/18 07:41:26;;;;;;;;;;;;;;;6.90;100.00;98790.72;5032414;28;20055;-82
2023/10/18 07:43:52;;;;;;;;;;;;;;;6.60;100.00;98789.44;5030596;28;19924;-82
2023/10/18 07:46:18;;;;;;;;;;;;;;;6.40;100.00;98795.50;5032705;28;19928;-82
2023/10/18 07:48:47;;;;;;;;;;;;;;;6.76;100.00;98782.56;5015326;28;20394;-82
2023/10/18 07:51:25;;;;;;;;;;;;;;;6.27;100.00;98789.91;5026395;28;20012;-82
2023/10/18 07:53:53;;;;;;;;;;;;;;;6.22;100.00;98773.47;5030798;28;20454;-81
2023/10/18 07:56:19;;;;;;;;;;;;;;;6.05;100.00;98774.13;5032426;28;20364;-80
2023/10/18 07:58:49;;;;;;;;;;;;;;;5.90;100.00;98776.44;5005347;28;19925;-80
2023/10/18 08:01:14;;;;;;;;;;;;;;;5.91;100.00;98772.06;5013785;28;19927;-83
2023/10/18 08:03:42;;;;;;;;;;;;;;;5.86;100.00;98772.22;5006525;28;19921;-81
2023/10/18 08:06:25;;;;;;;;;;;;;;;5.80;100.00;98773.31;5030339;28;20449;-85
2023/10/18 08:08:50;;;;;;;;;;;;;;;5.66;100.00;98772.16;5032298;28;19917;-81
2023/10/18 08:11:16;;;;;;;;;;;;;;;5.57;100.00;98771.59;5013744;28;19928;-81
2023/10/18 08:13:47;;;;;;;;;;;;;;;5.54;100.00;98770.88;5027300;28;20004;-83
2023/10/18 08:16:19;;;;;;;;;;;;;;;5.44;100.00;98768.59;5029240;28;19925;-83
2023/10/18 08:18:59;;;;;;;;;;;;;;;5.48;100.00;98761.44;5030538;28;20303;-82
2023/10/18 08:21:37;;;;;;;;;;;;;;;5.32;100.00;98758.53;5026229;28;19984;-83
2023/10/18 08:24:08;;;;;;;;;;;;;;;5.39;100.00;98764.41;5022474;28;19971;-82
2023/10/18 08:26:46;;;;;;;;;;;;;;;5.44;100.00;98767.72;5032050;28;19917;-86
2023/10/18 08:29:12;;;;;;;;;;;;;;;5.28;100.00;98752.56;5029614;28;20007;-81
2023/10/18 08:31:38;;;;;;;;;;;;;;;5.21;100.00;98752.84;5031928;28;19921;-81
2023/10/18 08:34:10;;;;;;;;;;;;;;;5.19;100.00;98744.16;5023579;28;20043;-81
2023/10/18 08:36:35;;;;;;;;;;;;;;;5.16;100.00;98752.16;5014255;28;19922;-82
2023/10/18 08:39:01;;;;;;;;;;;;;;;5.09;100.00;98738.41;4994357;28;19976;-83
2023/10/18 08:41:33;;;;;;;;;;;;;;;5.11;100.00;98738.34;5011452;28;20292;-84
2023/10/18 08:44:05;;;;;;;;;;;;;;;4.97;100.00;98750.19;5010328;28;19928;-83
2023/10/18 08:46:36;;;;;;;;;;;;;;;5.04;100.00;98737.69;5011931;28;19925;-82
2023/10/18 08:49:03;;;;;;;;;;;;;;;5.15;100.00;98725.00;5012088;28;20500;-83
2023/10/18 08:51:28;;;;;;;;;;;;;;;5.15;100.00;98729.41;5012147;28;19917;-84
2023/10/18 08:53:54;;;;;;;;;;;;;;;5.93;100.00;98730.75;4994340;28;20422;-83
2023/10/18 08:56:29;;;;;;;;;;;;;;;6.28;100.00;98723.22;5011051;28;19922;-83
2023/10/18 08:58:56;;;;;;;;;;;;;;;6.46;100.00;98721.56;4993028;28;19956;-83
2023/10/18 09:01:22;;;;;;;;;;;;;;;6.57;100.00;98721.13;5011080;28;19964;-82
2023/10/18 09:03:47;;;;;;;;;;;;;;;6.62;100.00;98717.38;5011898;28;20279;-80
2023/10/18 09:06:22;;;;;;;;;;;;;;;6.65;100.00;98717.25;5012073;28;19957;-81
2023/10/18 09:09:04;;;;;;;;;;;;;;;6.67;100.00;98718.03;4994355;28;19940;-81
2023/10/18 09:11:31;;;;;;;;;;;;;;;6.70;100.00;98710.00;4994317;28;19918;-83
2023/10/18 09:14:08;;;;;;;;;;;;;;;6.83;100.00;98706.78;5010470;28;20348;-80
2023/10/18 09:16:41;;;;;;;;;;;;;;;6.97;100.00;98700.91;4994039;28;19953;-81
2023/10/18 09:19:06;;;;;;;;;;;;;;;7.22;100.00;98709.41;4993995;28;19925;-80
2023/10/18 09:21:51;;;;;;;;;;;;;;;7.49;100.00;98700.28;5007372;28;20283;-81
2023/10/18 09:24:29;;;;;;;;;;;;;;;7.75;100.00;98689.31;5012041;28;19928;-81
2023/10/18 09:26:57;;;;;;;;;;;;;;;7.96;100.00;98686.56;5011834;28;19921;-81
2023/10/18 09:29:25;;;;;;;;;;;;;;;8.12;100.00;98690.16;5012904;28;20465;-80
2023/10/18 09:32:04;;;;;;;;;;;;;;;8.25;100.00;98693.03;5015156;28;19917;-81
2023/10/18 09:34:38;;;;;;;;;;;;;;;8.39;100.00;98687.03;5015232;28;19917;-86
2023/10/18 09:37:11;;;;;;;;;;;;;;;8.50;100.00;98678.59;4997100;28;19984;-82
2023/10/18 09:39:42;;;;;;;;;;;;;;;8.59;100.00;98672.00;4997744;28;19918;-84
2023/10/18 09:42:12;;;;;;;;;;;;;;;8.66;100.00;98681.28;4996611;28;19984;-85
2023/10/18 09:44:38;;;;;;;;;;;;;;;8.73;100.00;98672.13;4997486;28;20360;-85
2023/10/18 09:47:04;;;;;;;;;;;;;;;8.81;100.00;98663.78;5015215;28;19933;-82
2023/10/18 09:49:31;;;;;;;;;;;;;;;8.86;100.00;98662.59;5015055;28;19925;-82
2023/10/18 09:52:00;;;;;;;;;;;;;;;8.91;100.00;98655.28;5014946;28;19921;-84
2023/10/18 09:54:25;;;;;;;;;;;;;;;8.97;100.00;98647.97;5014831;28;19917;-81
2023/10/18 09:56:55;;;;;;;;;;;;;;;9.01;100.00;98650.34;5014997;28;20001;-80
2023/10/18 09:59:31;;;;;;;;;;;;;;;8.94;100.00;98650.78;5013877;28;19917;-85
2023/10/18 10:02:00;;;;;;;;;;;;;;;7.64;100.00;98644.16;5014596;28;19963;-80
2023/10/18 10:04:32;;;;;;;;;;;;;;;7.20;100.00;98641.91;5014611;28;19928;-83
2023/10/18 10:07:27;;;;;;;;;;;;;;;6.95;100.00;98635.16;5014664;28;19996;-82
2023/10/18 10:09:46;;;;;;;;;;;;;;;6.73;100.00;98632.63;5014054;28;19917;-81
2023/10/18 10:12:13;;;;;;;;;;;;;;;6.57;100.00;98635.09;5013316;28;19918;-81
2023/10/18 10:14:38;;;;;;;;;;;;;;;6.48;100.00;98635.53;5014740;28;19921;-81
2023/10/18 10:17:10;;;;;;;;;;;;;;;6.33;100.00;98635.31;5014451;28;19929;-81
2023/10/18 10:19:43;;;;;;;;;;;;;;;6.22;100.00;98634.03;5014025;28;19925;-80
2023/10/18 10:22:11;;;;;;;;;;;;;;;6.14;100.00;98632.59;5014469;28;19932;-81
2023/10/18 10:24:43;;;;;;;;;;;;;;;6.10;100.00;98632.81;5014101;28;19960;-81
2023/10/18 10:32:49;;;;;;;;;;;;;;;6.05;100.00;98604.06;5015106;28;19925;-81
2023/10/18 10:35:20;;;;;;;;;;;;;;;6.00;100.00;98609.53;5013574;28;20403;-81
2023/10/18 10:37:52;;;;;;;;;;;;;;;5.85;100.00;98612.75;5013668;28;19926;-83
2023/10/18 10:43:08;;;;;;;;;;;;;;;5.87;100.00;98616.22;5012211;28;19944;-84
2023/10/18 10:51:06;;;;;;;;;;;;;;;5.80;100.00;98601.59;5014008;28;20394;-86
2023/10/18 10:53:45;;;;;;;;;;;;;;;5.74;100.00;98601.84;4996372;28;19928;-81
2023/10/18 10:56:30;;;;;;;;;;;;;;;5.74;100.00;98593.97;5013623;28;19925;-81
2023/10/18 11:01:39;;;;;;;;;;;;;;;5.69;100.00;98585.44;5013758;28;19924;-81
2023/10/18 11:04:14;;;;;;;;;;;;;;;5.64;100.00;98581.19;5013626;28;19925;-84
2023/10/18 11:06:43;;;;;;;;;;;;;;;5.62;100.00;98577.78;5013256;28;20403;-81
2023/10/18 11:09:15;;;;;;;;;;;;;;;5.72;100.00;98577.41;5013042;28;20274;-80
2023/10/18 11:11:42;;;;;;;;;;;;;;;5.62;100.00;98574.31;5013126;28;19926;-81
2023/10/18 11:14:07;;;;;;;;;;;;;;;5.57;100.00;98560.53;5011357;28;19918;-91
2023/10/18 11:16:33;;;;;;;;;;;;;;;5.53;100.00;98551.06;5013886;28;19913;-85
2023/10/18 11:19:00;;;;;;;;;;;;;;;5.51;100.00;98550.28;4992386;28;19928;-81
2023/10/18 11:21:28;;;;;;;;;;;;;;;5.50;100.00;98541.50;4992646;28;19924;-81
2023/10/18 11:24:01;;;;;;;;;;;;;;;5.52;100.00;98544.06;4993850;28;20399;-81
2023/10/18 11:26:27;;;;;;;;;;;;;;;5.46;100.00;98540.78;4993729;28;19949;-81
2023/10/18 11:28:56;;;;;;;;;;;;;;;5.45;100.00;98532.97;4992421;28;19961;-83
2023/10/18 11:31:26;;;;;;;;;;;;;;;5.53;100.00;98517.75;4993192;28;20039;-82
2023/10/18 11:33:56;;;;;;;;;;;;;;;5.45;100.00;98519.84;4993209;28;19922;-80
2023/10/18 11:36:21;;;;;;;;;;;;;;;5.59;100.00;98509.59;4993034;28;20292;-81
2023/10/18 11:41:34;;;;;;;;;;;;;;;5.58;100.00;98497.38;4993876;28;19944;-80
2023/10/18 11:44:01;;;;;;;;;;;;;;;5.49;100.00;98494.28;4992362;28;20285;-81
2023/10/18 11:46:26;;;;;;;;;;;;;;;5.45;100.00;98489.16;4993814;28;19918;-81
2023/10/18 11:48:53;;;;;;;;;;;;;;;5.41;100.00;98481.50;4993627;28;19922;-88
2023/10/18 11:51:18;;;;;;;;;;;;;;;5.43;100.00;98484.91;4991161;28;19918;-83
2023/10/18 11:53:49;;;;;;;;;;;;;;;5.34;100.00;98486.13;4993148;28;20335;-80
2023/10/18 11:56:17;;;;;;;;;;;;;;;5.33;100.00;98486.19;4992881;28;19921;-84
2023/10/18 11:58:58;;;;;;;;;;;;;;;5.28;100.00;98497.78;4988937;28;19917;-81
2023/10/18 12:01:31;;;;;;;;;;;;;;;5.30;100.00;98474.06;4992519;28;19928;-80
2023/10/18 12:03:58;;;;;;;;;;;;;;;5.41;100.00;98463.09;4993092;28;20289;-85
2023/10/18 12:06:24;;;;;;;;;;;;;;;5.60;100.00;98460.50;4991967;28;19961;-83
2023/10/18 12:11:33;;;;;;;;;;;;;;;5.34;100.00;98452.00;4991307;28;20504;-86
2023/10/18 12:13:59;;;;;;;;;;;;;;;5.25;100.00;98445.38;4990474;28;19922;-87
2023/10/18 12:16:24;;;;;;;;;;;;;;;5.23;100.00;98447.22;4990742;28;20805;-80
2023/10/18 12:18:52;;;;;;;;;;;;;;;5.31;100.00;98436.34;5006035;28;19984;-82
2023/10/18 12:21:20;;;;;;;;;;;;;;;5.32;100.00;98438.06;5011651;28;20289;-82
2023/10/18 12:23:46;;;;;;;;;;;;;;;5.30;100.00;98431.16;5010845;28;20443;-86
2023/10/18 12:26:11;;;;;;;;;;;;;;;5.28;100.00;98424.22;4994555;28;19921;-83
2023/10/18 12:28:41;;;;;;;;;;;;;;;5.58;100.00;98423.78;5011114;28;19924;-83
2023/10/18 12:31:12;;;;;;;;;;;;;;;6.35;100.00;98409.81;5011793;28;19975;-82
2023/10/18 12:33:40;;;;;;;;;;;;;;;6.82;100.00;98410.22;5011737;28;19925;-80
2023/10/18 12:36:08;;;;;;;;;;;;;;;7.09;100.00;98408.81;5011751;28;20043;-81
2023/10/18 12:38:38;;;;;;;;;;;;;;;7.31;100.00;98405.09;5011501;28;19921;-81
2023/10/18 12:43:44;;;;;;;;;;;;;;;7.70;100.00;98396.03;5011064;28;19918;-81
2023/10/18 12:46:16;;;;;;;;;;;;;;;7.82;100.00;98398.03;4994655;28;19963;-80
2023/10/18 12:48:42;;;;;;;;;;;;;;;7.91;100.00;98394.03;5012211;28;20294;-81
2023/10/18 12:51:09;;;;;;;;;;;;;;;8.02;100.00;98387.31;5012222;28;19922;-81
2023/10/18 12:53:39;;;;;;;;;;;;;;;8.11;100.00;98387.69;4994693;28;20004;-81
2023/10/18 12:56:24;;;;;;;;;;;;;;;8.20;100.00;98383.69;5012240;28;19924;-81
2023/10/18 12:59:11;;;;;;;;;;;;;;;8.28;100.00;98375.31;4993370;28;20273;-81
2023/10/18 13:04:07;;;;;;;;;;;;;;;8.43;100.00;98358.66;5014144;28;19945;-86
2023/10/18 13:06:42;;;;;;;;;;;;;;;9.03;100.00;98356.97;4998248;28;19953;-83
2023/10/18 13:12:07;;;;;;;;;;;;;;;8.71;100.00;98362.34;5015291;28;19924;-84
2023/10/18 13:14:34;;;;;;;;;;;;;;;8.75;100.00;98347.22;5015219;28;20012;-82
2023/10/18 13:17:00;;;;;;;;;;;;;;;8.77;100.00;98351.44;5015756;28;20000;-83
2023/10/18 13:19:27;;;;;;;;;;;;;;;8.82;100.00;98348.53;5015379;28;19932;-82
2023/10/18 13:21:52;;;;;;;;;;;;;;;8.83;100.00;98339.69;5015776;28;19941;-84
2023/10/18 13:24:25;;;;;;;;;;;;;;;8.87;100.00;98335.91;5015786;28;19917;-83
2023/10/18 13:26:59;;;;;;;;;;;;;;;8.90;100.00;98331.31;5015393;28;19925;-83
2023/10/18 13:31:50;;;;;;;;;;;;;;;8.97;100.00;98321.22;5015500;28;19922;-84
2023/10/18 13:34:18;;;;;;;;;;;;;;;9.01;100.00;98311.31;5015310;28;19957;-84
2023/10/18 13:36:45;;;;;;;;;;;;;;;8.35;100.00;98305.44;5015464;28;19925;-83
2023/10/18 13:39:11;;;;;;;;;;;;;;;7.66;100.00;98294.31;5015504;28;19921;-82
2023/10/18 13:41:37;;;;;;;;;;;;;;;7.28;100.00;98300.72;5015197;28;19918;-83
2023/10/18 13:44:04;;;;;;;;;;;;;;;7.22;100.00;98302.81;4996564;28;20328;-83
2023/10/18 13:46:29;;;;;;;;;;;;;;;7.14;100.00;98302.38;5014463;28;19917;-85
2023/10/18 13:48:54;;;;;;;;;;;;;;;6.97;100.00;98290.94;4997545;28;19929;-86
2023/10/18 13:51:20;;;;;;;;;;;;;;;6.88;100.00;98291.44;5017827;28;19921;-87
2023/10/18 13:53:46;;;;;;;;;;;;;;;6.87;100.00;98280.03;5015007;28;19917;-82
2023/10/18 13:56:15;;;;;;;;;;;;;;;6.78;100.00;98277.00;5015096;28;19918;-81
2023/10/18 13:58:41;;;;;;;;;;;;;;;6.65;100.00;98277.66;5013099;28;19926;-83
2023/10/18 14:01:16;;;;;;;;;;;;;;;6.59;100.00;98274.47;5015330;28;20338;-82
2023/10/18 14:03:42;;;;;;;;;;;;;;;6.63;100.00;98273.41;5014314;28;20462;-83
2023/10/18 14:06:10;;;;;;;;;;;;;;;6.42;100.00;98272.69;5014888;28;19921;-83
2023/10/18 14:08:35;;;;;;;;;;;;;;;6.37;100.00;98280.81;5014778;28;19932;-82
2023/10/18 14:11:01;;;;;;;;;;;;;;;6.36;100.00;98269.44;4997097;28;19918;-82
2023/10/18 14:13:27;;;;;;;;;;;;;;;6.36;100.00;98266.78;5013299;28;19917;-80
2023/10/18 14:15:53;;;;;;;;;;;;;;;6.39;100.00;98262.34;5014605;28;19975;-83
2023/10/18 14:18:18;;;;;;;;;;;;;;;6.28;100.00;98261.06;4996957;28;19929;-84
2023/10/18 14:20:50;;;;;;;;;;;;;;;6.38;100.00;98244.84;4997194;28;20000;-84
2023/10/18 14:23:19;;;;;;;;;;;;;;;6.35;100.00;98251.97;5014597;28;19921;-82
2023/10/18 14:25:45;;;;;;;;;;;;;;;6.33;100.00;98251.19;5014111;28;19921;-85
2023/10/18 14:28:12;;;;;;;;;;;;;;;6.36;100.00;98252.81;4995942;28;20377;-91
2023/10/18 14:30:38;;;;;;;;;;;;;;;6.28;100.00;98241.81;5015225;28;19922;-83
2023/10/18 14:33:04;;;;;;;;;;;;;;;6.26;100.00;98239.25;5014447;28;19967;-83
2023/10/18 14:35:31;;;;;;;;;;;;;;;6.27;100.00;98238.34;5014366;28;20418;-83
2023/10/18 14:37:59;;;;;;;;;;;;;;;6.23;100.00;98230.69;5014320;28;19964;-83
2023/10/18 14:40:27;;;;;;;;;;;;;;;6.16;100.00;98230.97;4996003;28;20291;-83
2023/10/18 14:42:52;;;;;;;;;;;;;;;6.11;100.00;98237.38;5012948;28;19918;-88
2023/10/18 14:45:18;;;;;;;;;;;;;;;6.24;100.00;98227.97;5014468;28;19921;-84
2023/10/18 14:47:43;;;;;;;;;;;;;;;6.22;100.00;98228.97;5013342;28;19964;-85
2023/10/18 14:50:10;;;;;;;;;;;;;;;6.02;100.00;98224.72;5014044;28;19940;-84
2023/10/18 14:52:39;;;;;;;;;;;;;;;6.08;100.00;98221.75;4996262;28;20376;-84
2023/10/18 14:55:04;;;;;;;;;;;;;;;6.15;100.00;98224.00;4996385;28;19917;-83
2023/10/18 14:57:29;;;;;;;;;;;;;;;5.98;100.00;98216.97;5012813;28;20275;-83
2023/10/18 14:59:55;;;;;;;;;;;;;;;5.97;100.00;98214.41;4996376;28;20523;-83
2023/10/18 15:02:20;;;;;;;;;;;;;;;6.08;100.00;98211.22;5014081;28;19914;-84
2023/10/18 15:04:52;;;;;;;;;;;;;;;6.19;100.00;98208.94;5013732;28;20012;-85
2023/10/18 15:07:17;;;;;;;;;;;;;;;6.14;100.00;98209.16;4995726;28;19917;-83
2023/10/18 15:09:45;;;;;;;;;;;;;;;6.11;100.00;98205.81;5013598;28;19925;-85
2023/10/18 15:12:11;;;;;;;;;;;;;;;5.95;100.00;98206.56;5012608;28;19997;-81
2023/10/18 15:14:37;;;;;;;;;;;;;;;5.87;100.00;98197.34;5013587;28;19942;-83
2023/10/18 15:17:03;;;;;;;;;;;;;;;5.86;100.00;98207.00;5013543;28;20265;-83
2023/10/18 15:19:28;;;;;;;;;;;;;;;6.02;100.00;98196.63;4993945;28;19949;-81
2023/10/18 15:21:54;;;;;;;;;;;;;;;6.03;100.00;98192.22;4993956;28;19918;-84
2023/10/18 15:24:22;;;;;;;;;;;;;;;6.04;100.00;98188.66;4993877;28;19917;-84
2023/10/18 15:26:48;;;;;;;;;;;;;;;6.09;100.00;98189.28;4992534;28;19992;-80
2023/10/18 15:29:17;;;;;;;;;;;;;;;6.04;100.00;98188.66;4992425;28;20365;-83
2023/10/18 15:31:43;;;;;;;;;;;;;;;5.81;100.00;98190.63;4993591;28;20361;-82
2023/10/18 15:34:08;;;;;;;;;;;;;;;5.88;100.00;98193.78;4993675;28;19972;-81
2023/10/18 15:36:33;;;;;;;;;;;;;;;5.93;100.00;98195.25;4993458;28;20408;-83
2023/10/18 15:39:00;;;;;;;;;;;;;;;6.04;100.00;98191.28;4993627;28;19922;-83
2023/10/18 15:41:26;;;;;;;;;;;;;;;6.00;100.00;98183.56;4993402;28;19976;-83
2023/10/18 15:43:56;;;;;;;;;;;;;;;6.04;100.00;98188.66;4992258;28;20337;-83
2023/10/18 15:46:29;;;;;;;;;;;;;;;5.89;100.00;98183.19;4993226;28;19918;-81
2023/10/18 15:48:57;;;;;;;;;;;;;;;5.99;100.00;98181.00;4993711;28;20316;-81
2023/10/18 15:51:22;;;;;;;;;;;;;;;5.90;100.00;98176.16;4993384;28;19928;-80
2023/10/18 15:53:48;;;;;;;;;;;;;;;5.91;100.00;98173.44;4991054;28;20028;-81
2023/10/18 15:56:13;;;;;;;;;;;;;;;5.98;100.00;98163.50;4992170;28;19957;-81
2023/10/18 15:58:41;;;;;;;;;;;;;;;5.93;100.00;98160.22;4991109;28;19924;-81
2023/10/18 16:01:08;;;;;;;;;;;;;;;5.94;100.00;98164.56;4991963;28;20325;-81
2023/10/18 16:03:33;;;;;;;;;;;;;;;5.93;100.00;98161.06;4991925;28;19929;-80
2023/10/18 16:05:58;;;;;;;;;;;;;;;5.75;100.00;98162.00;4993001;28;19917;-80
2023/10/18 16:08:24;;;;;;;;;;;;;;;5.77;100.00;98160.13;4993103;28;20116;-81
2023/10/18 16:10:50;;;;;;;;;;;;;;;5.67;100.00;98159.75;4992223;28;19918;-83
2023/10/18 16:13:22;;;;;;;;;;;;;;;5.61;100.00;98150.38;4991695;28;20379;-80
2023/10/18 16:15:48;;;;;;;;;;;;;;;5.66;100.00;98152.78;4991856;28;20016;-82
2023/10/18 16:18:13;;;;;;;;;;;;;;;5.70;100.00;98154.34;5002451;28;20016;-84
2023/10/18 16:20:38;;;;;;;;;;;;;;;5.75;100.00;98152.31;4994798;28;20361;-81
2023/10/18 16:23:04;;;;;;;;;;;;;;;5.75;100.00;98147.06;5012453;28;20130;-83
2023/10/18 16:25:32;;;;;;;;;;;;;;;5.79;100.00;98147.75;5012411;28;19917;-80
2023/10/18 16:27:57;;;;;;;;;;;;;;;5.78;100.00;98151.34;4993426;28;19913;-82
2023/10/18 16:30:25;;;;;;;;;;;;;;;5.75;100.00;98146.22;5012267;28;20123;-80
2023/10/18 16:32:50;;;;;;;;;;;;;;;5.73;100.00;98148.09;5012027;28;20035;-80
2023/10/18 16:35:16;;;;;;;;;;;;;;;5.73;100.00;98142.84;5012100;28;20388;-80
2023/10/18 16:37:42;;;;;;;;;;;;;;;5.70;100.00;98143.00;5012030;28;20393;-81
2023/10/18 16:40:09;;;;;;;;;;;;;;;5.71;100.00;98139.41;5011733;28;20295;-79
2023/10/18 16:42:35;;;;;;;;;;;;;;;5.70;100.00;98145.63;5010782;28;19996;-81
2023/10/18 16:45:00;;;;;;;;;;;;;;;5.73;100.00;98142.84;5012192;28;20454;-82
2023/10/18 16:47:25;;;;;;;;;;;;;;;5.70;100.00;98149.09;4994534;28;20296;-80
2023/10/18 16:49:51;;;;;;;;;;;;;;;5.82;100.00;98143.22;4994282;28;19969;-82
2023/10/18 16:52:17;;;;;;;;;;;;;;;5.76;100.00;98137.41;4994319;28;20380;-86
2023/10/18 16:54:42;;;;;;;;;;;;;;;5.68;100.00;98139.56;4993561;28;19917;-84
2023/10/18 16:57:08;;;;;;;;;;;;;;;5.61;100.00;98134.59;4994103;28;19929;-84
2023/10/18 16:59:33;;;;;;;;;;;;;;;5.59;100.00;98133.00;4993518;28;20359;-84
2023/10/18 17:01:58;;;;;;;;;;;;;;;5.63;100.00;98130.16;4994285;28;19925;-83
2023/10/18 17:04:24;;;;;;;;;;;;;;;5.55;100.00;98123.53;5011902;28;19964;-82
2023/10/18 17:06:49;;;;;;;;;;;;;;;5.51;100.00;98128.09;5011708;28;19961;-84
2023/10/18 17:09:17;;;;;;;;;;;;;;;5.54;100.00;98120.09;5011651;28;19984;-81
2023/10/18 17:11:45;;;;;;;;;;;;;;;5.50;100.00;98129.03;5011866;28;19917;-81
2023/10/18 17:14:18;;;;;;;;;;;;;;;5.57;100.00;98127.81;5010719;28;19963;-82
2023/10/18 17:16:43;;;;;;;;;;;;;;;5.51;100.00;98122.84;4992936;28;19940;-78
2023/10/18 17:19:11;;;;;;;;;;;;;;;5.52;100.00;98119.31;5011357;28;20373;-86
2023/10/18 17:21:38;;;;;;;;;;;;;;;5.81;100.00;98123.13;5010971;28;19965;-82
2023/10/18 17:24:04;;;;;;;;;;;;;;;6.48;100.00;98119.78;5011493;28;19914;-82
2023/10/18 17:26:30;;;;;;;;;;;;;;;6.90;100.00;98118.41;5011536;28;19976;-86
2023/10/18 17:28:56;;;;;;;;;;;;;;;7.20;100.00;98115.03;5010217;28;19960;-82
2023/10/18 17:31:21;;;;;;;;;;;;;;;7.42;100.00;98115.53;5011551;28;19969;-82
2023/10/18 17:33:47;;;;;;;;;;;;;;;7.60;100.00;98118.03;5011400;28;19921;-80
2023/10/18 17:36:12;;;;;;;;;;;;;;;7.75;100.00;98119.78;5011355;28;20422;-82
2023/10/18 17:38:37;;;;;;;;;;;;;;;7.87;100.00;98125.31;5011496;28;20008;-81
2023/10/18 17:41:04;;;;;;;;;;;;;;;7.97;100.00;98113.28;5011525;28;20000;-84
2023/10/18 17:43:30;;;;;;;;;;;;;;;8.09;100.00;98109.91;4992667;28;19979;-83
2023/10/18 17:45:55;;;;;;;;;;;;;;;8.16;100.00;98116.50;5011983;28;20016;-82
2023/10/18 17:48:20;;;;;;;;;;;;;;;8.27;100.00;98117.69;5011313;28;20361;-83
2023/10/18 17:50:46;;;;;;;;;;;;;;;8.32;100.00;98113.81;5014331;28;19918;-85
2023/10/18 17:53:12;;;;;;;;;;;;;;;8.39;100.00;98116.91;5014901;28;19985;-80
2023/10/18 17:55:38;;;;;;;;;;;;;;;8.48;100.00;98107.63;5014297;28;20044;-81
2023/10/18 17:58:05;;;;;;;;;;;;;;;8.54;100.00;98102.00;4995883;28;19930;-84
2023/10/18 18:00:36;;;;;;;;;;;;;;;8.58;100.00;98107.91;4997066;28;20328;-80
2023/10/18 18:03:06;;;;;;;;;;;;;;;8.64;100.00;98102.25;5014310;28;20003;-81
2023/10/18 18:05:43;;;;;;;;;;;;;;;8.71;100.00;98101.78;5014311;28;19918;-83
2023/10/18 18:08:11;;;;;;;;;;;;;;;8.78;100.00;98102.25;5013850;28;20296;-82
2023/10/18 18:10:37;;;;;;;;;;;;;;;8.79;100.00;98101.31;5014657;28;19924;-84
2023/10/18 18:13:05;;;;;;;;;;;;;;;8.84;100.00;98090.44;5013066;28;20032;-84
2023/10/18 18:15:31;;;;;;;;;;;;;;;8.89;100.00;98089.22;5014022;28;19922;-83
2023/10/18 18:17:56;;;;;;;;;;;;;;;8.94;100.00;98088.94;4996556;28;19961;-82
2023/10/18 18:20:24;;;;;;;;;;;;;;;8.97;100.00;98088.75;5014561;28;20003;-79
2023/10/18 18:22:49;;;;;;;;;;;;;;;9.01;100.00;98078.81;4996062;28;19917;-83
2023/10/18 18:25:15;;;;;;;;;;;;;;;8.91;100.00;98081.22;5014383;28;20012;-81
2023/10/18 18:27:41;;;;;;;;;;;;;;;7.94;100.00;98076.53;4995517;28;19922;-81
2023/10/18 18:30:07;;;;;;;;;;;;;;;7.56;100.00;98077.84;5013893;28;19975;-82
2023/10/18 18:32:33;;;;;;;;;;;;;;;7.29;100.00;98069.69;4996556;28;19929;-82
2023/10/18 18:34:58;;;;;;;;;;;;;;;7.19;100.00;98063.28;4996599;28;19964;-84
2023/10/18 18:37:24;;;;;;;;;;;;;;;7.10;100.00;98059.38;5014152;28;19913;-82
2023/10/18 18:39:49;;;;;;;;;;;;;;;7.21;100.00;98051.72;4996525;28;19918;-81
2023/10/18 18:42:14;;;;;;;;;;;;;;;7.01;100.00;98050.19;5012704;28;19940;-82
2023/10/18 18:44:39;;;;;;;;;;;;;;;6.95;100.00;98055.81;5014031;28;19925;-83
2023/10/18 18:47:05;;;;;;;;;;;;;;;6.90;100.00;98047.31;4996494;28;19930;-83
2023/10/18 18:49:30;;;;;;;;;;;;;;;6.77;100.00;98031.34;5014143;28;19959;-84
2023/10/18 18:51:56;;;;;;;;;;;;;;;6.66;100.00;98036.34;5013639;28;20012;-84
2023/10/18 18:54:22;;;;;;;;;;;;;;;6.63;100.00;98024.19;5013216;28;19917;-85
2023/10/18 18:56:47;;;;;;;;;;;;;;;6.57;100.00;98018.44;4996458;28;20266;-83